CLB2 weather

Plattsville (Lubitz Flying Field)
Ontario, Canada

Public forecast

Using degrees Celsius for public forecast. Weather courtesy of forecast.io.

Closest aviation weather report (METAR) to Plattsville (Lubitz Flying Field)

Closest report is Waterloo Airport, 11.9 nm (22.0 km) NE. Retrieved 2020/07/07 03:00 UTC (37 minutes ago):

CYKF 070300Z AUTO 10006KT 9SM CLR 20/17 A3003 RMK SLP164 DENSITY ALT 1700FT

Closest aviation forecast (TAF) to Plattsville (Lubitz Flying Field)

Closest forecast is Waterloo Airport, 11.9 nm (22.0 km) NE. Retrieved 2020-07-07 02:42 UTC (55 minutes ago):

TAF CYKF 070138Z 0702/0714 12006KT P6SM FEW250 BECMG 0703/0705 VRB03KT RMK FCST BASED ON AUTO OBS NXT FCST BY 070800Z